EST,Max TemperatureF,Mean TemperatureF,Min TemperatureF,Max Dew PointF,MeanDew PointF,Min DewpointF,Max Humidity, Mean Humidity, Min Humidity, Max Sea Level PressureIn, Mean Sea Level PressureIn, Min Sea Level PressureIn, Max VisibilityMiles, Mean VisibilityMiles, Min VisibilityMiles, Max Wind SpeedMPH, Mean Wind SpeedMPH, Max Gust SpeedMPH,PrecipitationIn, CloudCover, Events, WindDirDegrees
2012-11-1,41,37,33,34,31,21,96,73,50,29.91,29.84,29.76,10,6,2,15,7,20,0.02,7,Rain-Snow,273
2012-11-2,45,39,33,26,24,22,70,56,41,30.06,29.93,29.84,10,10,10,21,8,26,0.00,4,,299
2012-11-3,46,39,31,36,28,25,92,71,49,30.18,30.11,30.03,10,10,4,12,5,17,0.20,5,Rain,328
2012-11-4,45,39,32,36,33,26,100,79,57,30.13,30.06,29.99,10,7,0,12,4,15,0.00,7,Fog,348
2012-11-5,43,35,27,27,24,22,85,65,45,30.17,30.12,30.05,10,10,10,12,3,16,0.00,2,,353
2012-11-6,44,37,29,28,25,22,75,64,53,30.11,30.04,29.95,10,10,10,16,7,24,0.00,1,,135
2012-11-7,50,40,29,32,27,24,78,60,42,30.02,29.94,29.86,10,10,10,14,5,18,0.00,1,,16
2012-11-8,47,36,25,26,22,19,88,63,37,30.24,30.16,30.03,10,10,4,14,5,17,0.00,0,,305
2012-11-9,57,43,28,29,25,21,78,55,32,30.33,30.27,30.22,10,10,10,9,3,14,0.00,0,,238
2012-11-10,67,52,37,33,27,20,59,41,23,30.36,30.30,30.24,10,10,10,13,5,16,0.00,0,,182
2012-11-11,70,60,50,45,32,27,62,43,23,30.38,30.31,30.26,10,10,10,17,9,25,0.00,0,,149
2012-11-12,64,51,37,53,45,35,96,74,52,30.33,30.22,30.08,10,9,2,25,11,32,0.26,6,Rain,218
2012-11-13,42,35,27,35,25,21,92,69,45,30.52,30.42,30.32,10,10,6,16,6,21,0.03,4,Rain,345
2012-11-14,44,33,22,26,23,19,81,66,51,30.52,30.45,30.35,10,10,10,15,3,18,0.00,0,,116
2012-11-15,51,40,29,27,25,24,85,62,38,30.36,30.32,30.26,10,10,10,15,4,29,0.00,0,,84
2012-11-16,50,38,26,29,25,23,85,59,33,30.47,30.38,30.31,10,10,10,12,3,14,0.00,0,,5
2012-11-17,56,42,28,25,21,16,78,51,24,30.54,30.49,30.45,10,10,10,13,4,16,0.00,0,,101
2012-11-18,52,44,36,33,29,20,70,59,48,30.53,30.47,30.42,10,10,10,21,8,28,0.00,0,,122
2012-11-19,59,49,38,38,35,29,85,64,43,30.41,30.32,30.20,10,10,10,14,5,20,0.00,0,,126
2012-11-20,57,47,37,37,31,24,85,58,30,30.19,30.15,30.09,10,10,10,13,2,15,0.00,1,,304
2012-11-21,58,45,32,32,25,21,75,50,24,30.25,30.20,30.12,10,10,9,12,3,16,0.00,0,,10
2012-11-22,63,47,31,30,25,22,72,48,23,30.29,30.21,30.10,10,10,10,9,3,12,0.00,0,,168
2012-11-23,55,44,33,43,33,24,86,66,45,30.10,30.01,29.92,10,10,7,23,9,33,T,4,Rain,265
2012-11-24,33,29,25,23,17,14,81,69,57,30.20,30.13,30.01,10,10,8,17,12,24,T,8,Snow,314
2012-11-25,48,34,19,17,13,10,77,50,23,30.17,30.10,30.00,10,10,10,17,7,24,0.00,1,,238
2012-11-26,51,43,34,37,23,15,85,58,30,30.21,30.16,30.08,10,10,10,13,5,17,0.11,5,Rain,224
2012-11-27,40,36,32,38,35,30,100,95,89,30.30,30.19,30.10,10,4,0,12,4,14,0.06,8,Fog-Rain,341
2012-11-28,39,31,23,30,24,20,92,68,44,30.46,30.37,30.29,10,10,7,14,5,17,0.00,4,,305
2012-11-29,49,35,20,26,19,11,88,56,23,30.50,30.41,30.34,10,10,10,10,4,14,0.00,0,,196
2012-11-30,56,44,32,31,26,19,75,51,26,30.38,30.32,30.25,10,10,10,10,4,14,0.00,1,,203